createdAt,value
2022-08-16T00:03:13.422Z,20.00
2022-08-16T00:06:18.659Z,19.90
2022-08-16T00:09:23.052Z,19.90
2022-08-16T00:15:51.986Z,19.90
2022-08-16T00:22:06.830Z,19.90
2022-08-16T00:25:18.828Z,19.90
2022-08-16T00:28:24.137Z,19.80
2022-08-16T00:31:58.870Z,19.80
2022-08-16T00:38:41.173Z,19.70
2022-08-16T00:41:32.053Z,19.80
2022-08-16T00:44:47.515Z,19.70
2022-08-16T00:51:00.532Z,19.70
2022-08-16T00:54:06.290Z,19.60
2022-08-16T00:57:11.626Z,19.60
2022-08-16T01:00:19.900Z,19.50
2022-08-16T01:04:30.257Z,19.40
2022-08-16T01:07:43.821Z,19.30
2022-08-16T01:10:55.966Z,19.20
2022-08-16T01:14:10.654Z,19.20
2022-08-16T01:17:16.281Z,19.20
2022-08-16T01:20:30.151Z,19.00
2022-08-16T01:23:58.628Z,19.00
2022-08-16T01:27:06.855Z,18.90
2022-08-16T01:30:20.705Z,18.90
2022-08-16T01:33:33.191Z,18.90
2022-08-16T01:36:37.947Z,18.80
2022-08-16T01:39:44.551Z,18.80
2022-08-16T01:42:49.780Z,18.70
2022-08-16T01:45:59.031Z,18.60
2022-08-16T01:49:07.814Z,18.60
2022-08-16T01:52:28.306Z,18.60
2022-08-16T01:56:00.694Z,18.50
2022-08-16T01:59:15.619Z,18.50
2022-08-16T02:02:27.248Z,18.40
2022-08-16T02:14:57.077Z,18.40
2022-08-16T02:21:12.363Z,18.40
2022-08-16T02:24:31.912Z,18.40
2022-08-16T02:30:44.274Z,18.40
2022-08-16T02:33:53.647Z,18.20
2022-08-16T02:37:06.220Z,18.40
2022-08-16T02:40:13.283Z,18.30
2022-08-16T02:53:02.825Z,18.20
2022-08-16T03:02:20.058Z,18.20
2022-08-16T03:05:36.470Z,18.10
2022-08-16T03:08:52.098Z,18.10
2022-08-16T03:11:57.778Z,18.00
2022-08-16T03:15:03.102Z,18.00
2022-08-16T03:18:18.665Z,18.00
2022-08-16T03:21:37.931Z,18.00
2022-08-16T03:34:04.757Z,21.50
2022-08-16T03:37:08.378Z,18.10
2022-08-16T03:40:31.794Z,18.00
2022-08-16T03:43:51.932Z,18.10
2022-08-16T03:53:38.032Z,18.00
2022-08-16T03:56:57.972Z,18.10
2022-08-16T04:00:20.486Z,18.00
2022-08-16T04:03:41.131Z,18.10
2022-08-16T04:06:46.234Z,18.00
2022-08-16T04:09:49.737Z,19.40
2022-08-16T04:12:59.413Z,18.10
2022-08-16T04:16:06.734Z,18.10
2022-08-16T04:25:27.763Z,18.30
2022-08-16T04:28:53.687Z,18.30
2022-08-16T04:31:58.160Z,18.40
2022-08-16T04:35:15.504Z,18.50
2022-08-16T04:38:21.686Z,18.50
2022-08-16T04:44:54.448Z,18.70
2022-08-16T04:48:02.417Z,18.90
2022-08-16T04:51:14.107Z,17.70
2022-08-16T04:54:22.232Z,19.10
2022-08-16T04:57:30.190Z,19.20
2022-08-16T05:00:37.716Z,19.30
2022-08-16T05:04:00.649Z,19.50
2022-08-16T05:07:20.518Z,19.60
2022-08-16T05:10:58.777Z,19.80
2022-08-16T05:14:07.269Z,20.00
2022-08-16T05:17:14.515Z,20.00
2022-08-16T05:23:55.442Z,20.10
2022-08-16T05:27:11.485Z,20.30
2022-08-16T05:30:34.115Z,20.50
2022-08-16T05:43:03.429Z,20.50
2022-08-16T05:46:30.446Z,20.50
2022-08-16T05:49:38.402Z,20.50
2022-08-16T05:52:45.176Z,20.50
2022-08-16T05:58:55.323Z,20.70
2022-08-16T06:01:59.768Z,20.90
2022-08-16T06:05:10.739Z,21.00
2022-08-16T06:08:32.087Z,20.90
2022-08-16T06:11:43.137Z,21.00
2022-08-16T06:24:53.492Z,21.10
2022-08-16T06:27:39.667Z,21.20
2022-08-16T06:30:45.196Z,21.20
2022-08-16T06:33:50.981Z,19.00
2022-08-16T06:36:59.183Z,21.40
2022-08-16T06:40:04.814Z,21.70
2022-08-16T06:49:38.988Z,22.10
2022-08-16T06:52:57.926Z,22.00
2022-08-16T06:56:14.462Z,22.30
2022-08-16T06:59:52.375Z,22.40
2022-08-16T07:03:04.445Z,22.90
2022-08-16T07:06:28.492Z,23.30
2022-08-16T07:09:36.484Z,23.50
2022-08-16T07:12:47.751Z,23.70
2022-08-16T07:16:06.826Z,23.70
2022-08-16T07:19:11.947Z,23.80
2022-08-16T07:22:38.959Z,23.80
2022-08-16T07:25:50.508Z,23.30
2022-08-16T07:28:55.337Z,23.40
2022-08-16T07:35:07.831Z,23.20
2022-08-16T07:38:12.300Z,23.70
2022-08-16T07:41:30.420Z,23.90
2022-08-16T07:44:49.002Z,24.00
2022-08-16T07:47:56.381Z,24.00
2022-08-16T07:51:01.693Z,23.70
2022-08-16T07:54:20.573Z,23.30
2022-08-16T08:00:32.425Z,23.10
2022-08-16T08:09:55.457Z,22.70
2022-08-16T08:13:00.587Z,22.70
2022-08-16T08:22:22.330Z,22.40
2022-08-16T08:26:17.939Z,22.50
2022-08-16T08:29:22.799Z,22.60
2022-08-16T08:36:33.507Z,22.90
2022-08-16T08:47:26.497Z,23.40
2022-08-16T08:50:31.673Z,25.10
2022-08-16T08:53:42.355Z,23.50
2022-08-16T08:56:53.312Z,23.50
2022-08-16T09:04:41.216Z,23.90
2022-08-16T09:08:01.678Z,24.00
2022-08-16T09:20:58.420Z,24.70
2022-08-16T09:24:04.459Z,24.70
2022-08-16T09:27:28.689Z,24.80
2022-08-16T09:30:51.057Z,24.80
2022-08-16T09:34:12.969Z,24.80
2022-08-16T09:38:32.531Z,25.00
2022-08-16T09:45:22.896Z,25.20
2022-08-16T09:49:03.232Z,25.30
2022-08-16T09:52:09.483Z,25.30
2022-08-16T10:05:52.100Z,25.30
2022-08-16T10:10:19.113Z,25.50
2022-08-16T10:17:27.960Z,25.40
2022-08-16T10:24:00.951Z,25.60
2022-08-16T10:27:46.193Z,26.40
2022-08-16T10:30:56.196Z,26.50
2022-08-16T10:34:23.983Z,26.90
2022-08-16T10:41:45.138Z,27.20
2022-08-16T10:46:39.470Z,27.50
2022-08-16T10:53:48.020Z,28.40
2022-08-16T10:58:11.425Z,28.50
2022-08-16T11:11:04.984Z,28.50
2022-08-16T11:17:02.614Z,28.20
2022-08-16T11:23:37.679Z,27.50
2022-08-16T11:30:37.790Z,26.20
2022-08-16T11:33:58.128Z,26.90
2022-08-16T11:37:02.243Z,26.50
2022-08-16T11:40:10.189Z,26.10
2022-08-16T11:43:19.018Z,26.40
2022-08-16T11:46:44.189Z,26.30
2022-08-16T11:49:49.150Z,27.90
2022-08-16T11:52:53.080Z,28.90
2022-08-16T11:55:58.398Z,29.20
2022-08-16T11:59:04.671Z,30.00
2022-08-16T12:02:31.044Z,30.00
2022-08-16T12:05:33.519Z,30.80
2022-08-16T12:08:37.063Z,31.30
2022-08-16T12:11:41.492Z,32.20
2022-08-16T12:14:48.563Z,32.30
2022-08-16T12:17:55.727Z,32.50
2022-08-16T12:21:00.009Z,32.60
2022-08-16T12:28:16.135Z,33.30
2022-08-16T12:35:49.069Z,32.90
2022-08-16T12:39:51.355Z,33.60
2022-08-16T12:44:01.629Z,33.00
2022-08-16T12:47:48.239Z,32.90
2022-08-16T12:50:52.212Z,32.70
2022-08-16T12:53:58.026Z,33.00
2022-08-16T12:57:01.618Z,33.00
2022-08-16T13:00:07.799Z,33.60
2022-08-16T13:03:13.705Z,33.70
2022-08-16T13:06:32.046Z,33.70
2022-08-16T13:09:53.148Z,33.60
2022-08-16T13:12:58.015Z,33.60
2022-08-16T13:16:20.066Z,32.70
2022-08-16T13:19:25.206Z,31.50
2022-08-16T13:25:57.419Z,29.50
2022-08-16T13:32:08.280Z,28.50
2022-08-16T13:44:56.037Z,28.20
2022-08-16T13:48:42.713Z,28.40
2022-08-16T13:54:55.292Z,29.10
2022-08-16T13:58:35.695Z,29.30
2022-08-16T14:01:41.072Z,29.20
2022-08-16T14:04:44.903Z,29.20
2022-08-16T14:07:52.806Z,29.60
2022-08-16T14:10:59.517Z,30.40
2022-08-16T14:14:05.500Z,30.30
2022-08-16T14:17:09.784Z,30.20
2022-08-16T14:20:27.653Z,30.30
2022-08-16T14:23:34.304Z,30.70
2022-08-16T14:30:48.330Z,31.40
2022-08-16T14:34:01.461Z,32.70
2022-08-16T14:37:06.033Z,32.50
2022-08-16T14:40:19.551Z,31.30
2022-08-16T14:46:31.225Z,30.50
2022-08-16T14:49:41.221Z,31.00
2022-08-16T14:52:56.454Z,31.50
2022-08-16T14:59:08.884Z,30.20
2022-08-16T15:02:33.888Z,30.40
2022-08-16T15:05:40.951Z,30.90
2022-08-16T15:08:47.316Z,30.40
2022-08-16T15:15:12.203Z,31.30
2022-08-16T15:18:23.497Z,30.70
2022-08-16T15:24:41.442Z,31.70
2022-08-16T15:27:55.375Z,32.70
2022-08-16T15:31:03.148Z,32.90
2022-08-16T15:37:25.655Z,32.40
2022-08-16T15:40:56.893Z,32.30
2022-08-16T15:44:51.991Z,32.10
2022-08-16T15:48:14.906Z,31.90
2022-08-16T15:54:52.581Z,32.50
2022-08-16T15:58:35.612Z,32.50
2022-08-16T16:01:31.379Z,32.40
2022-08-16T16:05:00.947Z,33.60
2022-08-16T16:08:11.843Z,33.00
2022-08-16T16:11:24.955Z,33.00
2022-08-16T16:14:29.940Z,33.60
2022-08-16T16:17:52.992Z,34.70
2022-08-16T16:21:05.183Z,34.80
2022-08-16T16:31:06.612Z,27.70
2022-08-16T16:37:27.264Z,23.30
2022-08-16T16:40:33.383Z,22.60
2022-08-16T16:43:41.059Z,22.20
2022-08-16T16:46:56.642Z,22.10
2022-08-16T16:53:17.115Z,22.10
2022-08-16T16:56:31.095Z,22.10
2022-08-16T17:02:49.613Z,22.20
2022-08-16T17:12:25.064Z,21.90
2022-08-16T17:15:36.557Z,22.00
2022-08-16T17:22:07.294Z,21.80
2022-08-16T17:34:53.777Z,21.70
2022-08-16T17:38:08.201Z,21.40
2022-08-16T17:39:28.317Z,21.80
2022-08-16T17:41:12.950Z,21.30
2022-08-16T17:44:19.483Z,21.40
2022-08-16T17:47:23.780Z,21.50
2022-08-16T17:56:39.395Z,21.10
2022-08-16T17:59:44.319Z,21.20
2022-08-16T18:02:50.454Z,21.20
2022-08-16T18:12:44.615Z,21.20
2022-08-16T18:15:38.523Z,21.20
2022-08-16T18:18:42.174Z,21.20
2022-08-16T18:22:03.435Z,21.10
2022-08-16T18:28:13.567Z,21.10
2022-08-16T18:31:17.488Z,21.20
2022-08-16T18:34:21.607Z,21.10
2022-08-16T18:37:25.542Z,21.00
2022-08-16T18:44:01.304Z,21.10
2022-08-16T18:47:02.013Z,21.00
2022-08-16T18:50:07.834Z,21.00
2022-08-16T18:53:18.224Z,21.00
2022-08-16T19:06:05.261Z,21.10
2022-08-16T19:15:22.933Z,20.90
2022-08-16T19:18:28.172Z,20.90
2022-08-16T19:26:37.610Z,20.90
2022-08-16T19:32:47.580Z,20.90
2022-08-16T19:35:52.486Z,20.90
2022-08-16T19:38:56.048Z,20.80
2022-08-16T19:41:59.560Z,20.80
2022-08-16T19:45:06.548Z,20.80
2022-08-16T19:48:10.055Z,20.80
2022-08-16T19:51:16.482Z,20.90
2022-08-16T19:54:19.884Z,20.90
2022-08-16T19:57:23.925Z,20.90
2022-08-16T20:00:35.304Z,21.00
2022-08-16T20:03:39.100Z,20.90
2022-08-16T20:06:42.654Z,20.80
2022-08-16T20:09:46.259Z,20.80
2022-08-16T20:13:01.726Z,20.80
2022-08-16T20:16:09.255Z,20.80
2022-08-16T20:19:13.600Z,20.70
2022-08-16T20:22:51.958Z,20.70
2022-08-16T20:25:50.674Z,20.70
2022-08-16T20:28:55.439Z,20.60
2022-08-16T20:32:01.234Z,20.70
2022-08-16T20:35:08.917Z,20.70
2022-08-16T20:38:13.981Z,20.60
2022-08-16T20:41:18.864Z,20.50
2022-08-16T20:44:25.257Z,20.40
2022-08-16T20:47:31.148Z,20.40
2022-08-16T20:50:37.265Z,20.30
2022-08-16T20:53:43.707Z,20.20
2022-08-16T20:56:48.441Z,20.20
2022-08-16T20:59:52.242Z,20.10
2022-08-16T21:02:57.576Z,20.10
2022-08-16T21:06:02.895Z,20.00
2022-08-16T21:09:07.734Z,20.00
2022-08-16T21:12:15.386Z,19.90
2022-08-16T21:15:23.684Z,19.90
2022-08-16T21:18:29.328Z,19.90
2022-08-16T21:21:33.786Z,19.90
2022-08-16T21:24:38.667Z,19.90
2022-08-16T21:28:41.959Z,19.90
2022-08-16T21:31:08.170Z,19.80
2022-08-16T21:34:15.320Z,19.70
2022-08-16T21:37:20.084Z,19.70
2022-08-16T21:40:23.688Z,19.60
2022-08-16T21:43:28.834Z,19.60
2022-08-16T21:46:33.691Z,19.60
2022-08-16T21:49:39.427Z,19.50
2022-08-16T21:52:42.922Z,19.40
2022-08-16T21:55:48.498Z,19.40
2022-08-16T21:58:52.750Z,19.30
2022-08-16T22:01:57.024Z,19.30
2022-08-16T22:05:01.731Z,19.20
2022-08-16T22:08:05.606Z,19.20
2022-08-16T22:11:09.712Z,19.20
2022-08-16T22:14:13.442Z,19.20
2022-08-16T22:17:17.355Z,19.10
2022-08-16T22:20:25.319Z,19.10
2022-08-16T22:23:29.056Z,19.10
2022-08-16T22:26:36.777Z,19.00
2022-08-16T22:29:43.168Z,18.90
2022-08-16T22:32:46.600Z,18.90
2022-08-16T22:35:54.462Z,18.90
2022-08-16T22:38:59.202Z,18.90
2022-08-16T22:42:08.245Z,18.80
2022-08-16T22:45:13.245Z,18.80
2022-08-16T22:48:18.309Z,18.80
2022-08-16T22:51:25.385Z,18.70
2022-08-16T22:54:43.845Z,18.70
2022-08-16T22:57:52.799Z,18.60
2022-08-16T23:00:56.964Z,18.60
2022-08-16T23:04:00.969Z,18.60
2022-08-16T23:07:06.603Z,18.50
2022-08-16T23:10:10.746Z,18.50
2022-08-16T23:13:15.298Z,18.40
2022-08-16T23:16:20.800Z,18.40
2022-08-16T23:19:24.075Z,18.30
2022-08-16T23:22:28.794Z,18.30
2022-08-16T23:25:35.335Z,18.20
2022-08-16T23:28:39.336Z,18.20
2022-08-16T23:31:42.616Z,18.20
2022-08-16T23:34:46.066Z,18.10
2022-08-16T23:37:51.214Z,18.20
2022-08-16T23:40:55.323Z,18.20
2022-08-16T23:43:58.619Z,18.20
2022-08-16T23:47:02.066Z,18.10
2022-08-16T23:50:06.306Z,18.00
2022-08-16T23:53:14.639Z,18.00
2022-08-16T23:56:19.855Z,18.00
2022-08-16T23:59:23.134Z,18.00
